createdAt,value
2023-05-24T00:00:22.176Z,5.75
2023-05-24T00:04:15.358Z,6.70
2023-05-24T00:07:47.587Z,6.07
2023-05-24T00:11:20.458Z,5.22
2023-05-24T00:14:52.591Z,5.90
2023-05-24T00:18:24.480Z,5.93
2023-05-24T00:21:56.620Z,7.93
2023-05-24T00:25:28.373Z,6.70
2023-05-24T00:29:00.597Z,7.05
2023-05-24T00:32:32.779Z,7.90
2023-05-24T00:36:04.698Z,6.83
2023-05-24T00:39:36.892Z,7.57
2023-05-24T00:43:08.728Z,8.10
2023-05-24T00:46:41.661Z,7.67
2023-05-24T00:50:17.237Z,7.97
2023-05-24T00:53:49.844Z,7.60
2023-05-24T00:57:23.909Z,8.07
2023-05-24T01:01:01.205Z,8.07
2023-05-24T01:04:33.584Z,8.83
2023-05-24T01:08:30.326Z,8.20
2023-05-24T01:12:34.400Z,7.80
2023-05-24T01:16:11.923Z,7.33
2023-05-24T01:19:46.258Z,8.20
2023-05-24T01:23:59.944Z,6.90
2023-05-24T01:27:34.294Z,7.32
2023-05-24T01:31:07.145Z,7.57
2023-05-24T01:34:39.279Z,8.23
2023-05-24T01:38:12.178Z,8.38
2023-05-24T01:42:07.901Z,7.53
2023-05-24T01:45:48.539Z,7.40
2023-05-24T01:49:26.998Z,6.63
2023-05-24T01:53:06.712Z,6.20
2023-05-24T01:56:40.863Z,5.78
2023-05-24T02:00:18.241Z,5.30
2023-05-24T02:03:50.954Z,4.33
2023-05-24T02:07:23.228Z,4.30
2023-05-24T02:10:55.054Z,4.10
2023-05-24T02:14:27.190Z,3.77
2023-05-24T02:18:01.429Z,3.30
2023-05-24T02:21:33.727Z,3.70
2023-05-24T02:25:08.324Z,2.70
2023-05-24T02:28:40.647Z,2.70
2023-05-24T02:32:12.490Z,2.20
2023-05-24T02:35:46.800Z,1.83
2023-05-24T02:39:19.048Z,1.77
2023-05-24T02:42:50.856Z,2.17
2023-05-24T02:46:23.016Z,2.23
2023-05-24T02:49:55.360Z,1.90
2023-05-24T02:53:27.431Z,2.35
2023-05-24T02:56:59.998Z,2.27
2023-05-24T03:00:32.039Z,2.40
2023-05-24T03:04:04.280Z,2.55
2023-05-24T03:07:36.648Z,2.13
2023-05-24T03:11:08.689Z,2.67
2023-05-24T03:14:40.624Z,2.80
2023-05-24T03:18:12.606Z,2.92
2023-05-24T03:21:44.471Z,3.35
2023-05-24T03:25:16.867Z,3.70
2023-05-24T03:28:50.718Z,4.57
2023-05-24T03:32:22.825Z,4.80
2023-05-24T03:35:54.573Z,4.35
2023-05-24T03:39:26.606Z,5.40
2023-05-24T03:42:58.673Z,5.20
2023-05-24T03:46:30.787Z,5.20
2023-05-24T03:50:03.362Z,4.43
2023-05-24T03:53:35.408Z,4.83
2023-05-24T03:57:07.771Z,4.73
2023-05-24T04:00:39.718Z,4.63
2023-05-24T04:04:12.019Z,4.80
2023-05-24T04:07:45.369Z,3.47
2023-05-24T04:11:17.391Z,3.40
2023-05-24T04:14:49.539Z,3.72
2023-05-24T04:18:21.793Z,3.67
2023-05-24T04:21:54.107Z,3.40
2023-05-24T04:25:26.896Z,3.73
2023-05-24T04:28:59.057Z,2.80
2023-05-24T04:32:33.456Z,2.55
2023-05-24T04:36:05.875Z,2.83
2023-05-24T04:39:37.630Z,2.83
2023-05-24T04:43:10.768Z,3.28
2023-05-24T04:46:43.060Z,3.13
2023-05-24T04:50:15.320Z,2.90
2023-05-24T04:53:47.206Z,2.20
2023-05-24T04:57:19.573Z,2.92
2023-05-24T05:00:51.793Z,2.33
2023-05-24T05:04:24.045Z,2.20
2023-05-24T05:07:55.928Z,1.83
2023-05-24T05:11:28.355Z,0.98
2023-05-24T05:15:00.270Z,1.52
2023-05-24T05:18:34.151Z,1.20
2023-05-24T05:22:05.998Z,0.87
2023-05-24T05:25:38.072Z,0.80
2023-05-24T05:29:09.858Z,0.60
2023-05-24T05:32:42.049Z,0.50
2023-05-24T05:36:14.052Z,0.40
2023-05-24T05:39:46.383Z,0.30
2023-05-24T05:43:18.479Z,0.30
2023-05-24T05:46:50.383Z,0.20
2023-05-24T05:50:23.850Z,0.20
2023-05-24T05:53:55.965Z,0.20
2023-05-24T05:57:28.056Z,0.20
2023-05-24T06:00:59.812Z,0.20
2023-05-24T06:04:31.931Z,0.20
2023-05-24T06:08:03.976Z,0.20
2023-05-24T06:11:36.121Z,0.38
2023-05-24T06:15:08.482Z,0.20
2023-05-24T06:18:47.425Z,0.30
2023-05-24T06:22:27.594Z,0.20
2023-05-24T06:26:01.614Z,0.30
2023-05-24T06:29:33.465Z,0.50
2023-05-24T06:33:06.172Z,0.30
2023-05-24T06:36:42.670Z,0.32
2023-05-24T06:40:14.823Z,0.30
2023-05-24T06:43:47.078Z,0.40
2023-05-24T06:47:19.043Z,0.55
2023-05-24T06:50:51.197Z,0.40
2023-05-24T06:54:23.233Z,0.50
2023-05-24T06:57:55.714Z,0.50
2023-05-24T07:01:29.470Z,0.50
2023-05-24T07:05:01.437Z,0.70
2023-05-24T07:08:33.716Z,1.13
2023-05-24T07:12:08.924Z,0.70
2023-05-24T07:15:44.230Z,0.85
2023-05-24T07:19:16.552Z,1.15
2023-05-24T07:22:48.216Z,1.67
2023-05-24T07:26:20.841Z,1.87
2023-05-24T07:29:55.914Z,1.60
2023-05-24T07:33:28.182Z,1.50
2023-05-24T07:37:01.024Z,1.80
2023-05-24T07:40:33.188Z,1.97
2023-05-24T07:44:05.102Z,1.63
2023-05-24T07:47:37.610Z,1.75
2023-05-24T07:51:09.858Z,1.40
2023-05-24T07:54:42.395Z,1.87
2023-05-24T07:58:14.129Z,1.33
2023-05-24T08:01:47.750Z,2.17
2023-05-24T08:05:20.104Z,1.83
2023-05-24T08:08:52.044Z,1.80
2023-05-24T08:12:25.917Z,2.03
2023-05-24T08:15:58.571Z,1.83
2023-05-24T08:19:35.920Z,2.50
2023-05-24T08:23:08.192Z,3.10
2023-05-24T08:26:40.243Z,2.78
2023-05-24T08:30:14.364Z,2.45
2023-05-24T08:33:50.221Z,2.57
2023-05-24T08:37:23.443Z,2.53
2023-05-24T08:40:55.652Z,2.80
2023-05-24T08:44:30.156Z,3.13
2023-05-24T08:48:02.923Z,2.57
2023-05-24T08:51:38.825Z,2.57
2023-05-24T08:55:14.105Z,2.70
2023-05-24T08:58:47.181Z,3.35
2023-05-24T09:02:19.903Z,2.33
2023-05-24T09:05:53.282Z,3.03
2023-05-24T09:09:27.943Z,2.95
2023-05-24T09:13:03.022Z,3.30
2023-05-24T09:16:35.714Z,3.70
2023-05-24T09:20:11.021Z,3.60
2023-05-24T09:23:43.827Z,3.38
2023-05-24T09:27:22.500Z,2.95
2023-05-24T09:31:06.204Z,3.80
2023-05-24T09:34:41.670Z,4.23
2023-05-24T09:38:21.041Z,3.72
2023-05-24T09:41:58.034Z,3.25
2023-05-24T09:45:30.126Z,3.50
2023-05-24T09:49:07.084Z,3.60
2023-05-24T09:52:39.537Z,3.00
2023-05-24T09:56:11.361Z,3.28
2023-05-24T09:59:44.486Z,3.57
2023-05-24T10:03:17.986Z,2.90
2023-05-24T10:06:49.920Z,3.38
2023-05-24T10:10:22.974Z,3.55
2023-05-24T10:13:55.459Z,3.67
2023-05-24T10:17:30.222Z,3.23
2023-05-24T10:21:07.941Z,3.67
2023-05-24T10:24:46.488Z,4.00
2023-05-24T10:28:20.268Z,4.00
2023-05-24T10:31:53.911Z,3.83
2023-05-24T10:35:27.454Z,3.70
2023-05-24T10:38:59.331Z,3.75
2023-05-24T10:42:32.446Z,4.10
2023-05-24T10:46:05.212Z,4.17
2023-05-24T10:49:39.857Z,3.70
2023-05-24T10:53:14.993Z,3.92
2023-05-24T10:56:49.539Z,4.20
2023-05-24T11:00:34.626Z,3.77
2023-05-24T11:04:07.895Z,3.95
2023-05-24T11:07:43.123Z,3.75
2023-05-24T11:11:26.523Z,3.80
2023-05-24T11:15:00.881Z,4.10
2023-05-24T11:18:33.811Z,4.22
2023-05-24T11:22:09.391Z,4.00
2023-05-24T11:25:42.018Z,3.70
2023-05-24T11:29:29.300Z,3.77
2023-05-24T11:33:16.542Z,4.07
2023-05-24T11:36:52.153Z,3.25
2023-05-24T11:40:25.010Z,3.45
2023-05-24T11:43:58.421Z,3.30
2023-05-24T11:47:32.631Z,3.28
2023-05-24T11:51:05.980Z,3.08
2023-05-24T11:54:39.001Z,3.08
2023-05-24T11:58:16.680Z,3.13
2023-05-24T12:01:48.653Z,2.97
2023-05-24T12:05:22.311Z,3.50
2023-05-24T12:08:54.615Z,3.63
2023-05-24T12:12:30.849Z,3.37
2023-05-24T12:16:11.984Z,3.33
2023-05-24T12:19:44.154Z,4.07
2023-05-24T12:23:24.230Z,3.87
2023-05-24T12:27:09.677Z,4.30
2023-05-24T12:30:44.855Z,3.55
2023-05-24T12:34:19.541Z,3.13
2023-05-24T12:37:59.682Z,3.53
2023-05-24T12:41:33.621Z,4.40
2023-05-24T12:45:05.953Z,4.00
2023-05-24T12:48:38.026Z,4.88
2023-05-24T12:52:09.691Z,4.30
2023-05-24T12:55:42.349Z,3.60
2023-05-24T12:59:15.099Z,3.30
2023-05-24T13:02:47.169Z,2.53
2023-05-24T13:06:19.700Z,4.03
2023-05-24T13:09:51.562Z,3.40
2023-05-24T13:13:24.364Z,3.05
2023-05-24T13:16:56.174Z,3.30
2023-05-24T13:20:28.945Z,3.53
2023-05-24T13:24:01.081Z,3.50
2023-05-24T13:27:33.674Z,3.58
2023-05-24T13:31:06.574Z,3.65
2023-05-24T13:34:38.764Z,3.00
2023-05-24T13:38:10.825Z,3.60
2023-05-24T13:41:43.651Z,3.63
2023-05-24T13:45:15.600Z,4.05
2023-05-24T13:48:47.640Z,4.70
2023-05-24T13:52:19.452Z,3.97
2023-05-24T13:55:52.627Z,4.88
2023-05-24T13:59:24.713Z,3.67
2023-05-24T14:02:58.071Z,3.50
2023-05-24T14:06:30.908Z,3.40
2023-05-24T14:10:03.365Z,3.00
2023-05-24T14:17:11.387Z,3.20
2023-05-24T14:20:43.902Z,3.20
2023-05-24T14:24:15.796Z,2.65
2023-05-24T14:27:47.990Z,2.92
2023-05-24T14:31:19.849Z,2.80
2023-05-24T14:34:54.556Z,2.97
2023-05-24T14:38:26.971Z,3.33
2023-05-24T14:41:58.850Z,3.10
2023-05-24T14:45:31.129Z,3.47
2023-05-24T14:49:03.680Z,2.45
2023-05-24T14:52:35.884Z,3.13
2023-05-24T14:56:11.299Z,3.20
2023-05-24T14:59:43.321Z,2.60
2023-05-24T15:03:15.379Z,3.10
2023-05-24T15:06:47.694Z,2.83
2023-05-24T15:10:19.758Z,2.88
2023-05-24T15:13:55.473Z,3.10
2023-05-24T15:17:27.749Z,3.10
2023-05-24T15:20:59.815Z,2.87
2023-05-24T15:24:31.963Z,2.83
2023-05-24T15:28:04.039Z,2.80
2023-05-24T15:31:36.596Z,2.90
2023-05-24T15:35:09.131Z,3.38
2023-05-24T15:38:42.468Z,3.27
2023-05-24T15:42:15.509Z,2.58
2023-05-24T15:45:48.235Z,2.92
2023-05-24T15:49:22.144Z,3.20
2023-05-24T15:52:54.017Z,3.20
2023-05-24T15:56:26.057Z,3.63
2023-05-24T15:59:58.374Z,3.70
2023-05-24T16:03:36.256Z,3.03
2023-05-24T16:07:10.509Z,3.53
2023-05-24T16:10:44.507Z,3.60
2023-05-24T16:14:17.058Z,2.88
2023-05-24T16:17:49.582Z,3.33
2023-05-24T16:21:21.824Z,3.27
2023-05-24T16:24:54.383Z,3.47
2023-05-24T16:28:26.605Z,3.08
2023-05-24T16:31:58.846Z,3.22
2023-05-24T16:35:31.320Z,3.00
2023-05-24T16:39:03.458Z,3.60
2023-05-24T16:42:35.484Z,3.22
2023-05-24T16:46:11.118Z,2.97
2023-05-24T16:49:43.241Z,3.47
2023-05-24T16:53:14.933Z,4.43
2023-05-24T16:56:48.226Z,3.40
2023-05-24T17:00:21.356Z,3.15
2023-05-24T17:03:53.396Z,2.63
2023-05-24T17:07:25.668Z,3.63
2023-05-24T17:10:57.950Z,3.50
2023-05-24T17:14:30.166Z,3.40
2023-05-24T17:18:02.322Z,3.97
2023-05-24T17:21:34.430Z,3.30
2023-05-24T17:25:07.680Z,3.63
2023-05-24T17:28:39.456Z,5.32
2023-05-24T17:32:11.812Z,3.53
2023-05-24T17:35:43.972Z,3.67
2023-05-24T17:39:20.300Z,3.67
2023-05-24T17:42:52.376Z,3.72
2023-05-24T17:46:24.293Z,4.23
2023-05-24T17:49:56.663Z,3.90
2023-05-24T17:53:31.681Z,4.00
2023-05-24T17:57:06.884Z,3.40
2023-05-24T18:00:39.095Z,4.47
2023-05-24T18:04:11.138Z,4.33
2023-05-24T18:07:50.172Z,4.68
2023-05-24T18:11:24.573Z,4.50
2023-05-24T18:14:56.747Z,4.70
2023-05-24T18:18:29.638Z,4.20
2023-05-24T18:22:02.727Z,4.53
2023-05-24T18:25:35.105Z,4.32
2023-05-24T18:29:10.115Z,4.03
2023-05-24T18:32:52.106Z,4.60
2023-05-24T18:36:34.299Z,4.60
2023-05-24T18:40:08.273Z,4.95
2023-05-24T18:43:40.261Z,5.00
2023-05-24T18:47:12.332Z,4.93
2023-05-24T18:50:44.371Z,5.05
2023-05-24T18:54:16.427Z,5.65
2023-05-24T18:57:49.175Z,4.97
2023-05-24T19:01:21.054Z,4.80
2023-05-24T19:04:53.283Z,4.93
2023-05-24T19:08:25.208Z,4.55
2023-05-24T19:11:59.320Z,4.95
2023-05-24T19:15:31.103Z,4.90
2023-05-24T19:19:03.896Z,5.55
2023-05-24T19:22:35.940Z,5.07
2023-05-24T19:26:08.013Z,5.88
2023-05-24T19:29:40.065Z,5.57
2023-05-24T19:33:12.384Z,6.03
2023-05-24T19:36:44.343Z,5.78
2023-05-24T19:40:16.518Z,5.37
2023-05-24T19:43:48.484Z,5.47
2023-05-24T19:47:20.831Z,5.22
2023-05-24T19:50:52.992Z,5.00
2023-05-24T19:54:24.942Z,5.47
2023-05-24T19:57:57.027Z,5.37
2023-05-24T20:01:28.844Z,6.53
2023-05-24T20:05:00.938Z,5.90
2023-05-24T20:08:33.329Z,6.23
2023-05-24T20:12:06.203Z,6.10
2023-05-24T20:15:39.875Z,6.88
2023-05-24T20:19:12.091Z,5.78
2023-05-24T20:22:44.107Z,5.97
2023-05-24T20:26:15.817Z,5.13
2023-05-24T20:29:48.065Z,5.38
2023-05-24T20:33:19.876Z,4.85
2023-05-24T20:36:51.860Z,4.83
2023-05-24T20:40:25.163Z,5.20
2023-05-24T20:43:57.129Z,5.68
2023-05-24T20:47:30.398Z,5.30
2023-05-24T20:51:02.261Z,4.93
2023-05-24T20:54:34.659Z,4.93
2023-05-24T20:58:06.395Z,4.75
2023-05-24T21:01:38.339Z,5.32
2023-05-24T21:05:10.336Z,6.37
2023-05-24T21:08:43.530Z,4.95
2023-05-24T21:12:15.324Z,5.63
2023-05-24T21:15:47.589Z,5.30
2023-05-24T21:19:19.839Z,5.60
2023-05-24T21:22:51.696Z,5.00
2023-05-24T21:26:23.899Z,5.43
2023-05-24T21:29:55.802Z,5.47
2023-05-24T21:33:27.862Z,5.40
2023-05-24T21:37:01.114Z,6.10
2023-05-24T21:40:33.247Z,6.03
2023-05-24T21:44:06.881Z,5.13
2023-05-24T21:47:38.951Z,5.50
2023-05-24T21:51:11.242Z,5.13
2023-05-24T21:54:42.989Z,5.25
2023-05-24T21:58:15.009Z,5.57
2023-05-24T22:01:46.969Z,5.63
2023-05-24T22:05:19.293Z,5.57
2023-05-24T22:08:51.074Z,5.60
2023-05-24T22:12:25.035Z,6.43
2023-05-24T22:15:57.300Z,6.53
2023-05-24T22:19:40.150Z,5.85
2023-05-24T22:23:14.359Z,6.43
2023-05-24T22:26:47.033Z,6.33
2023-05-24T22:30:19.669Z,6.25
2023-05-24T22:33:51.351Z,6.03
2023-05-24T22:37:24.087Z,6.63
2023-05-24T22:40:56.219Z,7.32
2023-05-24T22:44:28.003Z,6.18
2023-05-24T22:48:00.203Z,7.07
2023-05-24T22:51:33.163Z,6.75
2023-05-24T22:55:05.555Z,6.90
2023-05-24T22:58:37.570Z,6.82
2023-05-24T23:02:09.764Z,6.43
2023-05-24T23:05:42.303Z,7.03
2023-05-24T23:09:14.593Z,5.60
2023-05-24T23:12:46.887Z,6.23
2023-05-24T23:16:19.114Z,7.20
2023-05-24T23:19:51.149Z,6.30
2023-05-24T23:23:23.949Z,6.22
2023-05-24T23:26:57.140Z,6.20
2023-05-24T23:30:29.139Z,6.80
2023-05-24T23:34:01.290Z,6.78
2023-05-24T23:37:33.944Z,5.97
2023-05-24T23:41:05.996Z,6.07
2023-05-24T23:44:37.830Z,6.30
2023-05-24T23:48:10.026Z,6.45
2023-05-24T23:51:42.087Z,6.53
2023-05-24T23:55:14.126Z,7.47
2023-05-24T23:58:46.926Z,6.78
